createdAt,value
2018-12-05T00:01:57.930Z,94932.06
2018-12-05T00:04:24.310Z,94939.18
2018-12-05T00:06:50.698Z,94937.33
2018-12-05T00:09:17.060Z,94946.09
2018-12-05T00:11:43.437Z,94945.60
2018-12-05T00:14:09.781Z,94948.39
2018-12-05T00:16:36.126Z,94952.83
2018-12-05T00:19:02.487Z,94951.86
2018-12-05T00:21:28.876Z,94954.92
2018-12-05T00:23:55.261Z,94957.95
2018-12-05T00:26:21.648Z,94961.95
2018-12-05T00:28:47.977Z,94960.84
2018-12-05T00:31:14.355Z,94963.09
2018-12-05T00:33:40.685Z,94963.91
2018-12-05T00:36:07.049Z,94967.39
2018-12-05T00:38:33.406Z,94963.86
2018-12-05T00:40:59.772Z,94973.81
2018-12-05T00:43:26.104Z,94969.59
2018-12-05T00:45:54.668Z,94968.90
2018-12-05T00:48:21.054Z,94972.29
2018-12-05T00:50:47.402Z,94971.92
2018-12-05T00:53:13.713Z,94972.23
2018-12-05T00:55:40.087Z,94969.36
2018-12-05T00:58:06.418Z,94967.38
2018-12-05T01:00:32.748Z,94962.78
2018-12-05T01:02:59.157Z,94968.60
2018-12-05T01:05:25.518Z,94973.06
2018-12-05T01:07:51.845Z,94971.83
2018-12-05T01:10:18.172Z,94968.97
2018-12-05T01:12:44.506Z,94965.64
2018-12-05T01:15:11.067Z,94972.55
2018-12-05T01:17:37.406Z,94977.05
2018-12-05T01:20:03.742Z,94971.42
2018-12-05T01:22:30.156Z,94969.43
2018-12-05T01:24:56.526Z,94971.30
2018-12-05T01:27:24.185Z,94970.34
2018-12-05T01:29:49.240Z,94969.55
2018-12-05T01:32:15.588Z,94969.89
2018-12-05T01:34:41.970Z,94967.02
2018-12-05T01:37:08.351Z,94969.58
2018-12-05T01:39:34.703Z,94971.39
2018-12-05T01:42:01.037Z,94973.73
2018-12-05T01:44:27.379Z,94971.91
2018-12-05T01:46:53.720Z,94970.93
2018-12-05T01:49:20.047Z,94968.85
2018-12-05T01:51:46.393Z,94975.48
2018-12-05T01:54:12.736Z,94976.86
2018-12-05T01:56:39.107Z,94976.77
2018-12-05T01:59:05.445Z,94980.06
2018-12-05T02:01:31.786Z,94974.72
2018-12-05T02:03:58.134Z,94977.72
2018-12-05T02:06:24.487Z,94986.48
2018-12-05T02:08:50.821Z,94987.98
2018-12-05T02:11:17.280Z,94983.70
2018-12-05T02:13:43.606Z,94991.47
2018-12-05T02:16:10.011Z,94986.27
2018-12-05T02:18:36.359Z,94989.01
2018-12-05T02:21:02.706Z,94991.07
2018-12-05T02:23:29.026Z,94997.71
2018-12-05T02:25:55.401Z,94993.49
2018-12-05T02:28:21.693Z,95000.69
2018-12-05T02:30:48.023Z,94999.16
2018-12-05T02:33:14.396Z,95001.08
2018-12-05T02:35:40.745Z,95000.93
2018-12-05T02:38:07.099Z,95006.58
2018-12-05T02:40:33.423Z,95005.61
2018-12-05T02:42:59.881Z,95004.47
2018-12-05T02:45:26.272Z,94998.88
2018-12-05T02:47:52.655Z,95008.25
2018-12-05T02:50:18.987Z,95003.71
2018-12-05T02:52:45.315Z,95004.20
2018-12-05T02:55:11.668Z,95005.98
2018-12-05T02:57:38.034Z,95008.20
2018-12-05T03:00:04.387Z,95006.33
2018-12-05T03:02:30.737Z,95012.24
2018-12-05T03:04:57.086Z,95015.41
2018-12-05T03:07:23.426Z,95014.03
2018-12-05T03:09:49.770Z,95018.69
2018-12-05T03:12:16.115Z,95019.65
2018-12-05T03:14:42.456Z,95013.58
2018-12-05T03:17:08.817Z,95022.69
2018-12-05T03:19:35.186Z,95023.05
2018-12-05T03:22:01.565Z,95032.42
2018-12-05T03:24:28.000Z,95032.98
2018-12-05T03:26:54.387Z,95037.21
2018-12-05T03:29:20.719Z,95042.48
2018-12-05T03:31:47.049Z,95039.83
2018-12-05T03:34:13.376Z,95033.98
2018-12-05T03:36:39.727Z,95043.78
2018-12-05T03:39:06.101Z,95037.48
2018-12-05T03:41:32.432Z,95040.42
2018-12-05T03:43:58.730Z,95049.20
2018-12-05T03:46:25.080Z,95043.92
2018-12-05T03:48:51.410Z,95052.38
2018-12-05T03:51:17.762Z,95053.43
2018-12-05T03:53:44.100Z,95048.98
2018-12-05T03:56:10.427Z,95059.28
2018-12-05T03:58:36.762Z,95056.45
2018-12-05T04:01:03.120Z,95057.75
2018-12-05T04:03:29.446Z,95059.77
2018-12-05T04:05:55.831Z,95065.75
2018-12-05T04:08:22.170Z,95072.66
2018-12-05T04:10:48.659Z,95069.98
2018-12-05T04:13:14.987Z,95069.75
2018-12-05T04:15:41.341Z,95068.83
2018-12-05T04:18:07.688Z,95073.19
2018-12-05T04:20:34.084Z,95069.55
2018-12-05T04:23:00.513Z,95067.47
2018-12-05T04:25:26.894Z,95074.14
2018-12-05T04:27:53.216Z,95075.20
2018-12-05T04:30:19.556Z,95074.96
2018-12-05T04:32:46.022Z,95075.19
2018-12-05T04:35:12.414Z,95074.03
2018-12-05T04:37:38.751Z,95079.88
2018-12-05T04:40:05.095Z,95082.48
2018-12-05T04:42:31.425Z,95084.56
2018-12-05T04:44:57.819Z,95081.89
2018-12-05T04:47:24.200Z,95086.21
2018-12-05T04:49:50.540Z,95086.94
2018-12-05T04:52:16.939Z,95082.11
2018-12-05T04:54:43.208Z,95082.84
2018-12-05T04:57:09.551Z,95091.16
2018-12-05T04:59:35.916Z,95093.23
2018-12-05T05:02:02.262Z,95093.73
2018-12-05T05:04:28.653Z,95094.05
2018-12-05T05:06:55.040Z,95099.33
2018-12-05T05:09:21.355Z,95105.91
2018-12-05T05:11:47.714Z,95103.31
2018-12-05T05:14:14.049Z,95107.17
2018-12-05T05:16:40.392Z,95111.98
2018-12-05T05:19:06.738Z,95107.19
2018-12-05T05:21:33.114Z,95109.66
2018-12-05T05:23:59.471Z,95106.26
2018-12-05T05:26:25.819Z,95115.27
2018-12-05T05:28:52.153Z,95115.50
2018-12-05T05:31:18.483Z,95122.89
2018-12-05T05:33:44.849Z,95127.09
2018-12-05T05:36:11.210Z,95125.63
2018-12-05T05:38:37.524Z,95128.89
2018-12-05T05:41:03.883Z,95123.50
2018-12-05T05:43:30.265Z,95129.36
2018-12-05T05:45:56.589Z,95131.70
2018-12-05T05:48:22.919Z,95137.08
2018-12-05T05:50:49.251Z,95138.49
2018-12-05T05:53:15.650Z,95145.42
2018-12-05T05:55:42.003Z,95145.19
2018-12-05T05:58:08.382Z,95149.74
2018-12-05T06:00:34.715Z,95154.30
2018-12-05T06:03:01.067Z,95156.88
2018-12-05T06:05:27.408Z,95163.79
2018-12-05T06:07:53.795Z,95169.42
2018-12-05T06:10:20.144Z,95173.06
2018-12-05T06:12:46.503Z,95173.89
2018-12-05T06:15:12.914Z,95174.23
2018-12-05T06:17:39.326Z,95176.70
2018-12-05T06:20:05.665Z,95182.77
2018-12-05T06:22:31.988Z,95182.07
2018-12-05T06:24:58.369Z,95186.41
2018-12-05T06:27:24.800Z,95193.34
2018-12-05T06:29:51.095Z,95189.94
2018-12-05T06:32:17.475Z,95196.25
2018-12-05T06:34:43.804Z,95201.05
2018-12-05T06:37:10.208Z,95202.25
2018-12-05T06:39:36.539Z,95204.34
2018-12-05T06:42:02.892Z,95218.40
2018-12-05T06:44:29.342Z,95225.45
2018-12-05T06:46:55.705Z,95227.06
2018-12-05T06:49:22.198Z,95233.66
2018-12-05T06:51:48.559Z,95231.31
2018-12-05T06:54:14.915Z,95237.55
2018-12-05T06:56:41.268Z,95245.13
2018-12-05T06:59:07.604Z,95235.53
2018-12-05T07:01:33.951Z,95237.97
2018-12-05T07:04:00.292Z,95245.51
2018-12-05T07:06:26.694Z,95248.76
2018-12-05T07:08:53.048Z,95247.71
2018-12-05T07:11:19.397Z,95247.71
2018-12-05T07:13:45.760Z,95250.55
2018-12-05T07:16:12.156Z,95254.30
2018-12-05T07:18:38.560Z,95265.19
2018-12-05T07:21:05.016Z,95259.22
2018-12-05T07:23:31.358Z,95261.66
2018-12-05T07:25:57.749Z,95259.44
2018-12-05T07:28:24.205Z,95270.09
2018-12-05T07:30:50.571Z,95261.65
2018-12-05T07:33:16.921Z,95271.34
2018-12-05T07:35:43.251Z,95265.36
2018-12-05T07:38:09.661Z,95267.37
2018-12-05T07:40:36.045Z,95274.53
2018-12-05T07:43:02.438Z,95282.28
2018-12-05T07:45:28.925Z,95283.72
2018-12-05T07:47:55.367Z,95276.02
2018-12-05T07:50:21.721Z,95289.41
2018-12-05T07:52:48.164Z,95285.18
2018-12-05T07:55:14.572Z,95287.06
2018-12-05T07:57:41.113Z,95299.83
2018-12-05T08:00:07.646Z,95295.83
2018-12-05T08:02:34.060Z,95305.78
2018-12-05T08:05:00.605Z,95302.84
2018-12-05T08:07:26.968Z,95319.41
2018-12-05T08:09:53.477Z,95311.52
2018-12-05T08:12:20.490Z,95314.93
2018-12-05T08:14:46.853Z,95320.40
2018-12-05T08:17:13.192Z,95340.39
2018-12-05T08:19:39.677Z,95331.06
2018-12-05T08:22:06.159Z,95338.66
2018-12-05T08:24:32.587Z,95346.32
2018-12-05T08:26:59.209Z,95343.74
2018-12-05T08:29:25.660Z,95346.52
2018-12-05T08:31:52.603Z,95353.67
2018-12-05T08:34:19.134Z,95354.47
2018-12-05T08:36:45.800Z,95359.09
2018-12-05T08:39:13.239Z,95363.78
2018-12-05T08:41:39.978Z,95361.22
2018-12-05T08:44:06.863Z,95371.41
2018-12-05T08:46:33.249Z,95376.02
2018-12-05T08:48:59.785Z,95384.59
2018-12-05T08:51:26.290Z,95375.66
2018-12-05T08:53:52.854Z,95379.02
2018-12-05T08:56:21.417Z,95383.03
2018-12-05T08:58:47.780Z,95384.80
2018-12-05T09:01:15.419Z,95378.33
2018-12-05T09:03:41.851Z,95379.98
2018-12-05T09:06:08.299Z,95381.52
2018-12-05T09:08:34.672Z,95370.56
2018-12-05T09:11:03.471Z,95381.47
2018-12-05T09:13:29.882Z,95375.59
2018-12-05T09:15:58.689Z,95388.77
2018-12-05T09:18:25.033Z,95391.27
2018-12-05T09:20:51.464Z,95385.84
2018-12-05T09:23:17.865Z,95385.84
2018-12-05T09:25:44.171Z,95377.23
2018-12-05T09:28:12.691Z,95381.64
2018-12-05T09:30:39.219Z,95370.42
2018-12-05T09:33:05.588Z,95381.39
2018-12-05T09:35:31.967Z,95380.34
2018-12-05T09:37:58.477Z,95372.67
2018-12-05T09:40:25.005Z,95381.19
2018-12-05T09:42:51.402Z,95383.26
2018-12-05T09:45:17.783Z,95379.93
2018-12-05T09:47:44.338Z,95392.28
2018-12-05T09:50:10.644Z,95391.70
2018-12-05T09:52:36.974Z,95395.16
2018-12-05T09:55:03.390Z,95396.87
2018-12-05T09:57:29.832Z,95402.98
2018-12-05T09:59:56.471Z,95402.31
2018-12-05T10:02:24.451Z,95398.44
2018-12-05T10:04:50.807Z,95397.61
2018-12-05T10:07:17.170Z,95393.27
2018-12-05T10:09:43.561Z,95394.06
2018-12-05T10:12:09.880Z,95393.98
2018-12-05T10:14:36.274Z,95390.32
2018-12-05T10:17:02.605Z,95395.59
2018-12-05T10:19:29.461Z,95400.86
2018-12-05T10:21:55.880Z,95387.80
2018-12-05T10:24:22.314Z,95394.42
2018-12-05T10:26:48.704Z,95383.98
2018-12-05T10:29:15.084Z,95384.03
2018-12-05T10:31:44.223Z,95386.89
2018-12-05T10:34:07.861Z,95403.45
2018-12-05T10:36:34.227Z,95397.48
2018-12-05T10:39:00.557Z,95391.28
2018-12-05T10:41:26.897Z,95395.13
2018-12-05T10:43:54.231Z,95390.55
2018-12-05T10:46:20.569Z,95388.94
2018-12-05T10:48:47.428Z,95389.52
2018-12-05T10:51:13.770Z,95396.27
2018-12-05T10:53:40.111Z,95395.11
2018-12-05T10:56:06.446Z,95400.06
2018-12-05T10:58:32.852Z,95398.52
2018-12-05T11:01:00.470Z,95398.28
2018-12-05T11:03:26.893Z,95395.58
2018-12-05T11:05:53.390Z,95400.59
2018-12-05T11:08:19.798Z,95394.73
2018-12-05T11:10:46.174Z,95385.57
2018-12-05T11:13:12.610Z,95379.91
2018-12-05T11:15:38.955Z,95376.38
2018-12-05T11:18:05.517Z,95375.56
2018-12-05T11:20:31.874Z,95364.83
2018-12-05T11:22:58.212Z,95367.77
2018-12-05T11:25:24.784Z,95367.41
2018-12-05T11:27:51.220Z,95366.02
2018-12-05T11:30:17.691Z,95369.45
2018-12-05T11:32:46.479Z,95366.62
2018-12-05T11:35:13.099Z,95366.37
2018-12-05T11:37:39.504Z,95373.84
2018-12-05T11:40:08.203Z,95370.58
2018-12-05T11:42:34.733Z,95369.42
2018-12-05T11:45:01.326Z,95374.59
2018-12-05T11:47:28.075Z,95377.89
2018-12-05T11:49:54.654Z,95375.53
2018-12-05T11:52:21.486Z,95377.75
2018-12-05T11:54:47.919Z,95376.42
2018-12-05T11:57:16.614Z,95372.94
2018-12-05T11:59:43.458Z,95373.84
2018-12-05T12:02:09.987Z,95384.33
2018-12-05T12:04:37.641Z,95386.91
2018-12-05T12:07:04.262Z,95393.95
2018-12-05T12:09:30.932Z,95397.15
2018-12-05T12:11:57.420Z,95392.02
2018-12-05T12:14:23.816Z,95398.48
2018-12-05T12:16:51.461Z,95393.88
2018-12-05T12:19:17.993Z,95399.02
2018-12-05T12:21:44.356Z,95400.09
2018-12-05T12:24:10.743Z,95404.77
2018-12-05T12:26:37.332Z,95402.11
2018-12-05T12:29:03.986Z,95406.28
2018-12-05T12:31:30.915Z,95414.72
2018-12-05T12:33:57.320Z,95410.08
2018-12-05T12:36:23.840Z,95407.97
2018-12-05T12:38:50.377Z,95411.27
2018-12-05T12:41:16.913Z,95413.86
2018-12-05T12:43:43.294Z,95408.58
2018-12-05T12:46:09.774Z,95417.59
2018-12-05T12:48:36.293Z,95410.91
2018-12-05T12:51:04.912Z,95417.38
2018-12-05T12:53:31.960Z,95412.81
2018-12-05T12:55:58.476Z,95421.36
2018-12-05T12:58:27.295Z,95428.34
2018-12-05T13:00:57.893Z,95420.47
2018-12-05T13:03:32.763Z,95427.26
2018-12-05T13:05:59.673Z,95424.28
2018-12-05T13:08:29.336Z,95417.52
2018-12-05T13:10:56.119Z,95419.43
2018-12-05T13:13:22.970Z,95423.70
2018-12-05T13:15:49.439Z,95420.78
2018-12-05T13:18:15.956Z,95427.80
2018-12-05T13:20:42.373Z,95429.20
2018-12-05T13:23:09.251Z,95431.10
2018-12-05T13:25:35.698Z,95434.79
2018-12-05T13:28:02.170Z,95437.20
2018-12-05T13:30:28.699Z,95437.31
2018-12-05T13:32:57.234Z,95437.78
2018-12-05T13:35:29.246Z,95430.49
2018-12-05T13:37:55.664Z,95435.66
2018-12-05T13:40:22.220Z,95431.53
2018-12-05T13:42:48.657Z,95428.63
2018-12-05T13:45:15.057Z,95428.23
2018-12-05T13:47:41.411Z,95423.67
2018-12-05T13:50:07.877Z,95438.53
2018-12-05T13:52:34.367Z,95437.67
2018-12-05T13:55:00.707Z,95441.11
2018-12-05T13:57:27.043Z,95434.13
2018-12-05T13:59:53.438Z,95436.10
2018-12-05T14:02:19.817Z,95440.20
2018-12-05T14:04:46.235Z,95437.69
2018-12-05T14:07:12.586Z,95435.85
2018-12-05T14:09:38.964Z,95437.39
2018-12-05T14:12:05.332Z,95439.05
2018-12-05T14:14:31.752Z,95451.37
2018-12-05T14:17:00.322Z,95449.75
2018-12-05T14:19:27.662Z,95461.09
2018-12-05T14:21:54.051Z,95463.78
2018-12-05T14:24:20.451Z,95464.39
2018-12-05T14:26:46.794Z,95470.02
2018-12-05T14:29:13.165Z,95467.36
2018-12-05T14:31:40.398Z,95468.80
2018-12-05T14:34:06.767Z,95479.13
2018-12-05T14:36:33.191Z,95479.02
2018-12-05T14:38:59.565Z,95483.86
2018-12-05T14:41:25.954Z,95487.61
2018-12-05T14:43:52.311Z,95493.72
2018-12-05T14:46:18.637Z,95493.94
2018-12-05T14:48:45.096Z,95503.25
2018-12-05T14:51:11.445Z,95503.71
2018-12-05T14:53:37.852Z,95505.09
2018-12-05T14:56:04.197Z,95501.23
2018-12-05T14:58:30.606Z,95508.62
2018-12-05T15:00:57.034Z,95500.41
2018-12-05T15:03:23.369Z,95503.59
2018-12-05T15:05:49.804Z,95497.70
2018-12-05T15:08:16.172Z,95498.30
2018-12-05T15:10:42.667Z,95494.53
2018-12-05T15:13:09.076Z,95483.04
2018-12-05T15:15:35.429Z,95481.75
2018-12-05T15:18:01.783Z,95491.16
2018-12-05T15:20:28.138Z,95486.21
2018-12-05T15:22:54.504Z,95485.02
2018-12-05T15:25:20.846Z,95497.80
2018-12-05T15:27:47.171Z,95494.98
2018-12-05T15:30:13.662Z,95496.37
2018-12-05T15:32:40.050Z,95501.31
2018-12-05T15:35:06.461Z,95508.73
2018-12-05T15:37:32.871Z,95516.11
2018-12-05T15:40:01.398Z,95518.80
2018-12-05T15:42:27.789Z,95513.30
2018-12-05T15:44:54.286Z,95521.28
2018-12-05T15:47:20.773Z,95518.83
2018-12-05T15:49:47.232Z,95522.44
2018-12-05T15:52:13.603Z,95527.61
2018-12-05T15:54:41.141Z,95529.95
2018-12-05T15:57:09.877Z,95529.00
2018-12-05T15:59:32.697Z,95534.39
2018-12-05T16:01:59.039Z,95533.00
2018-12-05T16:04:25.370Z,95534.20
2018-12-05T16:06:51.765Z,95536.98
2018-12-05T16:09:18.189Z,95533.00
2018-12-05T16:11:44.645Z,95534.89
2018-12-05T16:14:10.988Z,95529.59
2018-12-05T16:16:37.485Z,95531.72
2018-12-05T16:19:03.821Z,95536.98
2018-12-05T16:21:30.150Z,95528.90
2018-12-05T16:23:56.556Z,95534.63
2018-12-05T16:26:22.911Z,95539.69
2018-12-05T16:28:49.354Z,95541.31
2018-12-05T16:31:15.803Z,95539.42
2018-12-05T16:33:42.073Z,95543.20
2018-12-05T16:36:11.299Z,95539.23
2018-12-05T16:38:34.839Z,95543.80
2018-12-05T16:41:01.209Z,95547.44
2018-12-05T16:43:27.609Z,95549.88
2018-12-05T16:45:53.993Z,95550.48
2018-12-05T16:48:20.483Z,95556.11
2018-12-05T16:50:46.805Z,95566.38
2018-12-05T16:53:13.166Z,95559.94
2018-12-05T16:55:39.507Z,95560.17
2018-12-05T16:58:05.843Z,95564.03
2018-12-05T17:00:32.197Z,95567.77
2018-12-05T17:02:58.529Z,95567.67
2018-12-05T17:05:24.857Z,95573.51
2018-12-05T17:07:51.206Z,95570.94
2018-12-05T17:10:17.546Z,95575.73
2018-12-05T17:12:43.881Z,95575.63
2018-12-05T17:15:10.338Z,95575.83
2018-12-05T17:17:36.695Z,95585.77
2018-12-05T17:20:03.032Z,95584.48
2018-12-05T17:22:29.359Z,95589.34
2018-12-05T17:24:55.843Z,95598.98
2018-12-05T17:27:22.181Z,95606.73
2018-12-05T17:29:48.505Z,95599.30
2018-12-05T17:32:14.856Z,95601.77
2018-12-05T17:34:41.223Z,95601.25
2018-12-05T17:37:07.555Z,95603.37
2018-12-05T17:39:33.943Z,95606.86
2018-12-05T17:42:00.296Z,95612.38
2018-12-05T17:44:26.649Z,95609.89
2018-12-05T17:46:52.985Z,95610.02
2018-12-05T17:49:19.314Z,95610.55
2018-12-05T17:51:45.673Z,95604.11
2018-12-05T17:54:14.946Z,95605.61
2018-12-05T17:56:38.329Z,95612.16
2018-12-05T17:59:04.755Z,95608.16
2018-12-05T18:01:31.094Z,95614.86
2018-12-05T18:03:57.438Z,95611.64
2018-12-05T18:06:23.788Z,95614.00
2018-12-05T18:08:50.135Z,95612.64
2018-12-05T18:11:16.473Z,95610.69
2018-12-05T18:13:42.873Z,95605.87
2018-12-05T18:16:09.216Z,95607.71
2018-12-05T18:18:35.553Z,95612.99
2018-12-05T18:21:01.896Z,95610.23
2018-12-05T18:23:28.235Z,95612.87
2018-12-05T18:25:54.665Z,95614.59
2018-12-05T18:28:21.012Z,95609.55
2018-12-05T18:30:47.330Z,95610.07
2018-12-05T18:33:13.677Z,95614.43
2018-12-05T18:35:40.030Z,95615.94
2018-12-05T18:38:06.516Z,95620.38
2018-12-05T18:40:32.857Z,95616.52
2018-12-05T18:42:59.261Z,95624.92
2018-12-05T18:45:25.675Z,95637.53
2018-12-05T18:47:52.048Z,95636.82
2018-12-05T18:50:18.346Z,95630.97
2018-12-05T18:52:44.711Z,95635.63
2018-12-05T18:55:11.072Z,95638.66
2018-12-05T18:57:37.452Z,95641.36
2018-12-05T19:00:03.774Z,95634.42
2018-12-05T19:02:30.146Z,95642.49
2018-12-05T19:04:56.512Z,95642.38
2018-12-05T19:07:22.848Z,95641.66
2018-12-05T19:09:49.242Z,95638.09
2018-12-05T19:12:15.573Z,95638.71
2018-12-05T19:14:41.908Z,95646.41
2018-12-05T19:17:08.257Z,95652.39
2018-12-05T19:19:34.593Z,95656.71
2018-12-05T19:22:00.915Z,95650.94
2018-12-05T19:24:27.297Z,95654.44
2018-12-05T19:26:53.640Z,95660.53
2018-12-05T19:29:19.972Z,95659.41
2018-12-05T19:31:46.366Z,95662.32
2018-12-05T19:34:12.725Z,95661.57
2018-12-05T19:36:39.067Z,95659.87
2018-12-05T19:39:05.401Z,95665.94
2018-12-05T19:41:31.728Z,95666.59
2018-12-05T19:43:58.124Z,95671.55
2018-12-05T19:46:24.459Z,95673.13
2018-12-05T19:48:50.758Z,95664.31
2018-12-05T19:51:17.079Z,95667.47
2018-12-05T19:53:43.408Z,95669.54
2018-12-05T19:56:09.743Z,95666.59
2018-12-05T19:58:36.104Z,95670.66
2018-12-05T20:01:02.522Z,95670.74
2018-12-05T20:03:28.968Z,95673.64
2018-12-05T20:05:55.331Z,95679.91
2018-12-05T20:08:21.664Z,95677.42
2018-12-05T20:10:48.015Z,95678.45
2018-12-05T20:13:14.351Z,95679.02
2018-12-05T20:15:40.674Z,95676.28
2018-12-05T20:18:07.034Z,95680.23
2018-12-05T20:20:33.363Z,95683.59
2018-12-05T20:22:59.714Z,95679.39
2018-12-05T20:25:26.035Z,95684.94
2018-12-05T20:27:52.410Z,95681.08
2018-12-05T20:30:18.768Z,95679.82
2018-12-05T20:32:45.106Z,95681.11
2018-12-05T20:35:11.459Z,95678.87
2018-12-05T20:37:37.803Z,95675.78
2018-12-05T20:40:04.143Z,95688.86
2018-12-05T20:42:30.549Z,95690.42
2018-12-05T20:44:56.933Z,95688.33
2018-12-05T20:47:23.285Z,95691.70
2018-12-05T20:49:49.689Z,95690.62
2018-12-05T20:52:16.019Z,95696.70
2018-12-05T20:54:42.361Z,95687.34
2018-12-05T20:57:08.764Z,95694.23
2018-12-05T20:59:35.182Z,95689.92
2018-12-05T21:02:01.504Z,95687.61
2018-12-05T21:04:27.842Z,95692.95
2018-12-05T21:06:54.242Z,95688.19
2018-12-05T21:09:20.597Z,95685.44
2018-12-05T21:11:46.979Z,95683.81
2018-12-05T21:14:13.331Z,95690.58
2018-12-05T21:16:39.650Z,95684.16
2018-12-05T21:19:05.989Z,95682.52
2018-12-05T21:21:32.322Z,95691.72
2018-12-05T21:23:59.056Z,95690.25
2018-12-05T21:26:25.419Z,95687.42
2018-12-05T21:28:51.749Z,95685.76
2018-12-05T21:31:18.139Z,95690.70
2018-12-05T21:33:44.483Z,95693.73
2018-12-05T21:36:10.815Z,95686.41
2018-12-05T21:38:37.185Z,95691.66
2018-12-05T21:41:03.507Z,95694.58
2018-12-05T21:43:29.849Z,95700.18
2018-12-05T21:45:56.167Z,95700.29
2018-12-05T21:48:22.507Z,95692.20
2018-12-05T21:50:48.836Z,95695.08
2018-12-05T21:53:15.169Z,95697.27
2018-12-05T21:55:41.502Z,95699.84
2018-12-05T21:58:07.899Z,95698.93
2018-12-05T22:00:34.239Z,95701.20
2018-12-05T22:03:00.591Z,95705.44
2018-12-05T22:05:26.925Z,95698.80
2018-12-05T22:07:53.316Z,95698.98
2018-12-05T22:10:19.608Z,95697.24
2018-12-05T22:12:45.938Z,95697.70
2018-12-05T22:15:12.266Z,95704.13
2018-12-05T22:17:38.602Z,95697.81
2018-12-05T22:20:04.918Z,95705.41
2018-12-05T22:22:31.294Z,95704.80
2018-12-05T22:24:57.719Z,95702.95
2018-12-05T22:27:24.036Z,95696.91
2018-12-05T22:29:50.387Z,95697.81
2018-12-05T22:32:16.740Z,95689.19
2018-12-05T22:34:43.120Z,95690.37
2018-12-05T22:37:09.458Z,95691.84
2018-12-05T22:39:35.788Z,95696.91
2018-12-05T22:42:02.129Z,95692.67
2018-12-05T22:44:28.470Z,95694.22
2018-12-05T22:46:54.800Z,95697.81
2018-12-05T22:49:21.133Z,95696.72
2018-12-05T22:51:47.462Z,95693.13
2018-12-05T22:54:13.797Z,95704.61
2018-12-05T22:56:40.144Z,95698.91
2018-12-05T22:59:06.477Z,95702.87
2018-12-05T23:01:32.815Z,95693.77
2018-12-05T23:03:59.198Z,95704.23
2018-12-05T23:06:25.597Z,95700.95
2018-12-05T23:08:51.924Z,95708.47
2018-12-05T23:11:18.280Z,95700.22
2018-12-05T23:13:44.609Z,95701.77
2018-12-05T23:16:10.945Z,95699.28
2018-12-05T23:18:37.282Z,95705.70
2018-12-05T23:21:03.631Z,95707.10
2018-12-05T23:23:29.983Z,95708.00
2018-12-05T23:25:56.332Z,95701.95
2018-12-05T23:28:22.708Z,95703.43
2018-12-05T23:30:49.038Z,95711.86
2018-12-05T23:33:15.422Z,95701.05
2018-12-05T23:35:41.779Z,95704.42
2018-12-05T23:38:08.111Z,95700.86
2018-12-05T23:40:34.453Z,95698.36
2018-12-05T23:43:00.913Z,95701.87
2018-12-05T23:45:27.235Z,95710.38
2018-12-05T23:47:53.562Z,95713.33
2018-12-05T23:50:19.922Z,95713.33
2018-12-05T23:52:46.247Z,95718.47
2018-12-05T23:55:12.631Z,95716.08
2018-12-05T23:57:38.974Z,95716.53
